sensor_id;sensor_type;location;lat;lon;timestamp;pressure;altitude;pressure_sealevel;temperature;humidity
28588;BME280;15787;49.662;10.162;2022-11-15T00:02:31;98945.28;;;9.48;99.31
28588;BME280;15787;49.662;10.162;2022-11-15T00:05:18;98948.16;;;9.41;98.59
28588;BME280;15787;49.662;10.162;2022-11-15T00:08:05;98951.53;;;9.32;99.12
28588;BME280;15787;49.662;10.162;2022-11-15T00:10:55;98953.69;;;9.44;99.59
28588;BME280;15787;49.662;10.162;2022-11-15T00:13:43;98943.22;;;9.29;98.88
28588;BME280;15787;49.662;10.162;2022-11-15T00:16:29;98945.59;;;9.30;99.46
28588;BME280;15787;49.662;10.162;2022-11-15T00:19:16;98942.50;;;9.02;100.00
28588;BME280;15787;49.662;10.162;2022-11-15T00:22:02;98938.00;;;9.08;100.00
28588;BME280;15787;49.662;10.162;2022-11-15T00:24:48;98940.50;;;9.02;100.00
28588;BME280;15787;49.662;10.162;2022-11-15T00:27:35;98937.66;;;9.06;100.00
28588;BME280;15787;49.662;10.162;2022-11-15T00:30:23;98932.50;;;8.81;100.00
28588;BME280;15787;49.662;10.162;2022-11-15T00:33:10;98934.97;;;8.99;100.00
28588;BME280;15787;49.662;10.162;2022-11-15T00:36:00;98930.63;;;8.98;100.00
28588;BME280;15787;49.662;10.162;2022-11-15T00:38:47;98929.78;;;9.01;100.00
28588;BME280;15787;49.662;10.162;2022-11-15T00:41:33;98936.38;;;9.10;100.00
28588;BME280;15787;49.662;10.162;2022-11-15T00:44:19;98929.59;;;9.11;100.00
28588;BME280;15787;49.662;10.162;2022-11-15T00:47:07;98931.00;;;9.00;100.00
28588;BME280;15787;49.662;10.162;2022-11-15T00:49:53;98927.47;;;8.96;100.00
28588;BME280;15787;49.662;10.162;2022-11-15T00:52:40;98923.13;;;8.95;100.00
28588;BME280;15787;49.662;10.162;2022-11-15T00:55:26;98930.84;;;8.83;100.00
28588;BME280;15787;49.662;10.162;2022-11-15T00:58:12;98925.97;;;8.91;100.00
28588;BME280;15787;49.662;10.162;2022-11-15T01:01:06;98934.53;;;9.00;100.00
28588;BME280;15787;49.662;10.162;2022-11-15T01:03:54;98930.38;;;8.88;100.00
28588;BME280;15787;49.662;10.162;2022-11-15T01:06:45;98919.13;;;8.96;100.00
28588;BME280;15787;49.662;10.162;2022-11-15T01:09:31;98923.66;;;8.86;100.00
28588;BME280;15787;49.662;10.162;2022-11-15T01:12:18;98919.69;;;8.60;100.00
28588;BME280;15787;49.662;10.162;2022-11-15T01:15:05;98916.44;;;8.65;100.00
28588;BME280;15787;49.662;10.162;2022-11-15T01:17:51;98916.59;;;8.55;100.00
28588;BME280;15787;49.662;10.162;2022-11-15T01:20:40;98915.06;;;8.77;100.00
28588;BME280;15787;49.662;10.162;2022-11-15T01:23:28;98921.91;;;8.96;100.00
28588;BME280;15787;49.662;10.162;2022-11-15T01:26:15;98914.97;;;9.07;100.00
28588;BME280;15787;49.662;10.162;2022-11-15T01:29:02;98907.56;;;8.47;100.00
28588;BME280;15787;49.662;10.162;2022-11-15T01:31:48;98911.13;;;8.74;100.00
28588;BME280;15787;49.662;10.162;2022-11-15T01:34:35;98910.22;;;8.54;100.00
28588;BME280;15787;49.662;10.162;2022-11-15T01:37:22;98903.69;;;8.41;100.00
28588;BME280;15787;49.662;10.162;2022-11-15T01:40:10;98903.09;;;8.26;100.00
28588;BME280;15787;49.662;10.162;2022-11-15T01:42:56;98905.88;;;8.53;100.00
28588;BME280;15787;49.662;10.162;2022-11-15T01:45:45;98889.38;;;7.82;100.00
28588;BME280;15787;49.662;10.162;2022-11-15T01:48:34;98889.84;;;7.77;100.00
28588;BME280;15787;49.662;10.162;2022-11-15T01:51:23;98892.75;;;7.67;100.00
28588;BME280;15787;49.662;10.162;2022-11-15T01:54:15;98889.06;;;7.73;100.00
28588;BME280;15787;49.662;10.162;2022-11-15T01:57:05;98877.34;;;7.58;100.00
28588;BME280;15787;49.662;10.162;2022-11-15T01:59:53;98872.09;;;7.68;100.00
28588;BME280;15787;49.662;10.162;2022-11-15T02:02:40;98869.34;;;7.64;100.00
28588;BME280;15787;49.662;10.162;2022-11-15T02:05:26;98864.41;;;7.45;100.00
28588;BME280;15787;49.662;10.162;2022-11-15T02:08:13;98862.34;;;7.52;100.00
28588;BME280;15787;49.662;10.162;2022-11-15T02:11:09;98854.31;;;7.58;100.00
28588;BME280;15787;49.662;10.162;2022-11-15T02:13:56;98861.19;;;7.50;100.00
28588;BME280;15787;49.662;10.162;2022-11-15T02:16:53;98865.97;;;7.49;100.00
28588;BME280;15787;49.662;10.162;2022-11-15T02:26:43;98864.84;;;7.40;100.00
28588;BME280;15787;49.662;10.162;2022-11-15T02:29:48;98858.16;;;7.37;100.00
28588;BME280;15787;49.662;10.162;2022-11-15T02:32:46;98853.72;;;7.43;100.00
28588;BME280;15787;49.662;10.162;2022-11-15T02:35:41;98843.88;;;7.35;100.00
28588;BME280;15787;49.662;10.162;2022-11-15T02:38:36;98847.03;;;7.04;100.00
28588;BME280;15787;49.662;10.162;2022-11-15T02:41:30;98843.47;;;6.99;100.00
28588;BME280;15787;49.662;10.162;2022-11-15T02:44:20;98842.63;;;7.06;100.00
28588;BME280;15787;49.662;10.162;2022-11-15T02:47:07;98841.84;;;7.06;100.00
28588;BME280;15787;49.662;10.162;2022-11-15T02:50:06;98844.34;;;7.30;100.00
28588;BME280;15787;49.662;10.162;2022-11-15T02:52:53;98843.75;;;7.12;100.00
28588;BME280;15787;49.662;10.162;2022-11-15T02:55:42;98833.09;;;6.66;100.00
28588;BME280;15787;49.662;10.162;2022-11-15T03:01:56;98824.13;;;6.92;100.00
28588;BME280;15787;49.662;10.162;2022-11-15T03:04:53;98821.81;;;6.84;100.00
28588;BME280;15787;49.662;10.162;2022-11-15T03:07:48;98825.84;;;6.79;100.00
28588;BME280;15787;49.662;10.162;2022-11-15T03:10:46;98825.72;;;6.93;100.00
28588;BME280;15787;49.662;10.162;2022-11-15T03:13:44;98828.72;;;6.69;100.00
28588;BME280;15787;49.662;10.162;2022-11-15T03:16:37;98824.00;;;7.07;100.00
28588;BME280;15787;49.662;10.162;2022-11-15T03:19:29;98822.78;;;6.67;100.00
28588;BME280;15787;49.662;10.162;2022-11-15T03:22:17;98841.09;;;6.61;100.00
28588;BME280;15787;49.662;10.162;2022-11-15T03:25:09;98829.81;;;6.34;100.00
28588;BME280;15787;49.662;10.162;2022-11-15T03:27:58;98817.97;;;6.74;100.00
28588;BME280;15787;49.662;10.162;2022-11-15T03:30:49;98820.03;;;6.19;100.00
28588;BME280;15787;49.662;10.162;2022-11-15T03:33:36;98814.41;;;6.29;100.00
28588;BME280;15787;49.662;10.162;2022-11-15T03:36:25;98805.13;;;6.50;100.00
28588;BME280;15787;49.662;10.162;2022-11-15T03:39:12;98808.03;;;6.77;100.00
28588;BME280;15787;49.662;10.162;2022-11-15T03:42:12;98817.91;;;6.37;100.00
28588;BME280;15787;49.662;10.162;2022-11-15T03:45:04;98811.41;;;6.58;100.00
28588;BME280;15787;49.662;10.162;2022-11-15T03:47:58;98805.22;;;6.36;100.00
28588;BME280;15787;49.662;10.162;2022-11-15T03:50:46;98805.94;;;6.47;100.00
28588;BME280;15787;49.662;10.162;2022-11-15T03:53:33;98803.25;;;6.36;100.00
28588;BME280;15787;49.662;10.162;2022-11-15T03:56:20;98802.66;;;6.15;100.00
28588;BME280;15787;49.662;10.162;2022-11-15T03:59:08;98808.63;;;6.06;100.00
28588;BME280;15787;49.662;10.162;2022-11-15T04:01:54;98803.31;;;6.29;100.00
28588;BME280;15787;49.662;10.162;2022-11-15T04:04:41;98803.41;;;6.15;100.00
28588;BME280;15787;49.662;10.162;2022-11-15T04:07:28;98795.44;;;6.21;100.00
28588;BME280;15787;49.662;10.162;2022-11-15T04:10:15;98794.69;;;6.17;100.00
28588;BME280;15787;49.662;10.162;2022-11-15T04:13:02;98799.44;;;6.16;100.00
28588;BME280;15787;49.662;10.162;2022-11-15T04:15:51;98792.38;;;6.08;100.00
28588;BME280;15787;49.662;10.162;2022-11-15T04:18:37;98794.41;;;6.04;100.00
28588;BME280;15787;49.662;10.162;2022-11-15T04:21:24;98788.91;;;5.97;100.00
28588;BME280;15787;49.662;10.162;2022-11-15T04:24:28;98796.50;;;5.90;100.00
28588;BME280;15787;49.662;10.162;2022-11-15T04:27:14;98782.56;;;5.97;100.00
28588;BME280;15787;49.662;10.162;2022-11-15T04:30:01;98785.78;;;5.92;100.00
28588;BME280;15787;49.662;10.162;2022-11-15T04:32:49;98772.69;;;5.96;100.00
28588;BME280;15787;49.662;10.162;2022-11-15T04:35:36;98776.56;;;6.05;100.00
28588;BME280;15787;49.662;10.162;2022-11-15T04:38:22;98774.03;;;5.66;100.00
28588;BME280;15787;49.662;10.162;2022-11-15T04:41:08;98781.28;;;5.46;100.00
28588;BME280;15787;49.662;10.162;2022-11-15T04:43:54;98775.66;;;5.64;100.00
28588;BME280;15787;49.662;10.162;2022-11-15T04:46:41;98779.13;;;5.75;100.00
28588;BME280;15787;49.662;10.162;2022-11-15T04:49:29;98768.50;;;5.66;100.00
28588;BME280;15787;49.662;10.162;2022-11-15T04:52:15;98779.25;;;5.54;100.00
28588;BME280;15787;49.662;10.162;2022-11-15T04:55:02;98775.22;;;5.62;100.00
28588;BME280;15787;49.662;10.162;2022-11-15T04:57:59;98775.97;;;5.77;100.00
28588;BME280;15787;49.662;10.162;2022-11-15T05:00:46;98779.13;;;5.75;100.00
28588;BME280;15787;49.662;10.162;2022-11-15T05:03:32;98778.84;;;5.59;100.00
28588;BME280;15787;49.662;10.162;2022-11-15T05:06:38;98770.97;;;5.47;100.00
28588;BME280;15787;49.662;10.162;2022-11-15T05:09:24;98765.50;;;5.33;100.00
28588;BME280;15787;49.662;10.162;2022-11-15T05:12:10;98756.47;;;5.22;100.00
28588;BME280;15787;49.662;10.162;2022-11-15T05:14:57;98751.00;;;5.07;100.00
28588;BME280;15787;49.662;10.162;2022-11-15T05:17:44;98753.28;;;5.27;100.00
28588;BME280;15787;49.662;10.162;2022-11-15T05:20:31;98748.16;;;5.29;100.00
28588;BME280;15787;49.662;10.162;2022-11-15T05:23:18;98751.25;;;5.38;100.00
28588;BME280;15787;49.662;10.162;2022-11-15T05:26:06;98748.56;;;5.20;100.00
28588;BME280;15787;49.662;10.162;2022-11-15T05:28:57;98745.75;;;5.31;100.00
28588;BME280;15787;49.662;10.162;2022-11-15T05:31:44;98752.50;;;5.26;100.00
28588;BME280;15787;49.662;10.162;2022-11-15T05:34:30;98754.19;;;5.02;100.00
28588;BME280;15787;49.662;10.162;2022-11-15T05:37:17;98742.31;;;5.05;100.00
28588;BME280;15787;49.662;10.162;2022-11-15T05:40:06;98734.09;;;4.88;100.00
28588;BME280;15787;49.662;10.162;2022-11-15T05:42:53;98736.34;;;5.14;100.00
28588;BME280;15787;49.662;10.162;2022-11-15T05:45:40;98728.19;;;4.82;100.00
28588;BME280;15787;49.662;10.162;2022-11-15T05:48:27;98735.47;;;5.31;100.00
28588;BME280;15787;49.662;10.162;2022-11-15T05:51:14;98733.25;;;4.91;100.00
28588;BME280;15787;49.662;10.162;2022-11-15T05:54:01;98737.16;;;5.04;100.00
28588;BME280;15787;49.662;10.162;2022-11-15T05:56:50;98727.22;;;5.21;100.00
28588;BME280;15787;49.662;10.162;2022-11-15T05:59:37;98741.81;;;5.25;100.00
28588;BME280;15787;49.662;10.162;2022-11-15T06:02:25;98737.22;;;4.90;100.00
28588;BME280;15787;49.662;10.162;2022-11-15T06:05:12;98734.84;;;4.88;100.00
28588;BME280;15787;49.662;10.162;2022-11-15T06:07:58;98719.47;;;4.87;100.00
28588;BME280;15787;49.662;10.162;2022-11-15T06:10:44;98714.75;;;4.77;100.00
28588;BME280;15787;49.662;10.162;2022-11-15T06:13:33;98724.28;;;4.59;100.00
28588;BME280;15787;49.662;10.162;2022-11-15T06:16:20;98731.03;;;4.43;100.00
28588;BME280;15787;49.662;10.162;2022-11-15T06:19:06;98716.72;;;4.73;100.00
28588;BME280;15787;49.662;10.162;2022-11-15T06:21:55;98720.66;;;4.79;100.00
28588;BME280;15787;49.662;10.162;2022-11-15T06:24:42;98722.63;;;4.82;100.00
28588;BME280;15787;49.662;10.162;2022-11-15T06:27:29;98726.16;;;4.86;100.00
28588;BME280;15787;49.662;10.162;2022-11-15T06:30:17;98729.00;;;4.69;100.00
28588;BME280;15787;49.662;10.162;2022-11-15T06:33:04;98741.25;;;4.71;100.00
28588;BME280;15787;49.662;10.162;2022-11-15T06:35:50;98734.50;;;4.83;100.00
28588;BME280;15787;49.662;10.162;2022-11-15T06:38:37;98729.38;;;4.74;100.00
28588;BME280;15787;49.662;10.162;2022-11-15T06:41:23;98742.84;;;4.65;100.00
28588;BME280;15787;49.662;10.162;2022-11-15T06:44:10;98741.63;;;4.80;100.00
28588;BME280;15787;49.662;10.162;2022-11-15T06:46:57;98747.56;;;4.68;100.00
28588;BME280;15787;49.662;10.162;2022-11-15T06:49:44;98744.06;;;4.46;100.00
28588;BME280;15787;49.662;10.162;2022-11-15T06:52:32;98747.63;;;4.36;100.00
28588;BME280;15787;49.662;10.162;2022-11-15T06:55:18;98744.84;;;4.40;100.00
28588;BME280;15787;49.662;10.162;2022-11-15T06:58:04;98740.56;;;4.21;100.00
28588;BME280;15787;49.662;10.162;2022-11-15T07:00:51;98745.69;;;4.19;100.00
28588;BME280;15787;49.662;10.162;2022-11-15T07:03:40;98745.28;;;4.14;100.00
28588;BME280;15787;49.662;10.162;2022-11-15T07:06:27;98746.44;;;4.41;100.00
28588;BME280;15787;49.662;10.162;2022-11-15T07:09:14;98752.69;;;4.77;100.00
28588;BME280;15787;49.662;10.162;2022-11-15T07:12:01;98751.47;;;4.85;100.00
28588;BME280;15787;49.662;10.162;2022-11-15T07:14:51;98756.66;;;4.69;100.00
28588;BME280;15787;49.662;10.162;2022-11-15T07:17:39;98743.28;;;4.46;100.00
28588;BME280;15787;49.662;10.162;2022-11-15T07:20:27;98739.69;;;4.70;100.00
28588;BME280;15787;49.662;10.162;2022-11-15T07:23:13;98740.38;;;4.95;100.00
28588;BME280;15787;49.662;10.162;2022-11-15T07:26:00;98738.31;;;5.13;100.00
28588;BME280;15787;49.662;10.162;2022-11-15T07:28:46;98745.38;;;5.29;100.00
28588;BME280;15787;49.662;10.162;2022-11-15T07:31:33;98740.63;;;5.26;100.00
28588;BME280;15787;49.662;10.162;2022-11-15T07:34:19;98750.50;;;5.34;100.00
28588;BME280;15787;49.662;10.162;2022-11-15T07:37:07;98756.34;;;5.46;100.00
28588;BME280;15787;49.662;10.162;2022-11-15T07:39:53;98756.25;;;5.64;100.00
28588;BME280;15787;49.662;10.162;2022-11-15T07:42:39;98752.59;;;5.85;100.00
28588;BME280;15787;49.662;10.162;2022-11-15T07:45:40;98739.78;;;6.01;100.00
28588;BME280;15787;49.662;10.162;2022-11-15T07:48:27;98733.72;;;6.17;100.00
28588;BME280;15787;49.662;10.162;2022-11-15T07:51:27;98751.28;;;6.44;100.00
28588;BME280;15787;49.662;10.162;2022-11-15T07:54:15;98747.16;;;6.59;100.00
28588;BME280;15787;49.662;10.162;2022-11-15T07:57:02;98748.25;;;6.69;100.00
28588;BME280;15787;49.662;10.162;2022-11-15T07:59:52;98744.53;;;6.86;100.00
28588;BME280;15787;49.662;10.162;2022-11-15T08:02:38;98742.84;;;6.92;100.00
28588;BME280;15787;49.662;10.162;2022-11-15T08:05:25;98742.66;;;6.76;100.00
28588;BME280;15787;49.662;10.162;2022-11-15T08:08:12;98733.81;;;6.84;100.00
28588;BME280;15787;49.662;10.162;2022-11-15T08:11:00;98736.63;;;7.15;100.00
28588;BME280;15787;49.662;10.162;2022-11-15T08:13:47;98735.53;;;7.09;100.00
28588;BME280;15787;49.662;10.162;2022-11-15T08:16:33;98735.75;;;7.21;100.00
28588;BME280;15787;49.662;10.162;2022-11-15T08:19:19;98737.41;;;7.15;100.00
28588;BME280;15787;49.662;10.162;2022-11-15T08:22:07;98737.94;;;7.37;100.00
28588;BME280;15787;49.662;10.162;2022-11-15T08:24:53;98749.97;;;7.57;100.00
28588;BME280;15787;49.662;10.162;2022-11-15T08:27:41;98746.19;;;7.71;100.00
28588;BME280;15787;49.662;10.162;2022-11-15T08:30:27;98737.31;;;8.06;100.00
28588;BME280;15787;49.662;10.162;2022-11-15T08:33:14;98724.22;;;8.53;100.00
28588;BME280;15787;49.662;10.162;2022-11-15T08:36:01;98716.03;;;8.85;100.00
28588;BME280;15787;49.662;10.162;2022-11-15T08:38:48;98715.28;;;9.04;100.00
28588;BME280;15787;49.662;10.162;2022-11-15T08:41:36;98706.00;;;9.46;99.81
28588;BME280;15787;49.662;10.162;2022-11-15T08:44:24;98703.66;;;10.13;98.98
28588;BME280;15787;49.662;10.162;2022-11-15T08:47:11;98703.38;;;10.07;96.08
28588;BME280;15787;49.662;10.162;2022-11-15T08:49:58;98701.63;;;9.97;95.19
28588;BME280;15787;49.662;10.162;2022-11-15T08:52:45;98700.75;;;9.68;94.79
28588;BME280;15787;49.662;10.162;2022-11-15T08:55:36;98701.63;;;9.81;94.77
28588;BME280;15787;49.662;10.162;2022-11-15T08:58:23;98704.44;;;9.81;94.74
28588;BME280;15787;49.662;10.162;2022-11-15T09:01:17;98695.88;;;10.04;94.66
28588;BME280;15787;49.662;10.162;2022-11-15T09:04:04;98692.47;;;10.90;93.90
28588;BME280;15787;49.662;10.162;2022-11-15T09:06:50;98679.00;;;11.26;90.34
28588;BME280;15787;49.662;10.162;2022-11-15T09:09:37;98685.69;;;11.83;88.21
28588;BME280;15787;49.662;10.162;2022-11-15T09:12:24;98686.66;;;12.14;86.91
28588;BME280;15787;49.662;10.162;2022-11-15T09:15:10;98681.94;;;12.24;85.76
28588;BME280;15787;49.662;10.162;2022-11-15T09:17:59;98677.72;;;11.43;86.83
28588;BME280;15787;49.662;10.162;2022-11-15T09:20:46;98680.09;;;11.70;86.25
28588;BME280;15787;49.662;10.162;2022-11-15T09:23:32;98681.31;;;11.57;86.72
28588;BME280;15787;49.662;10.162;2022-11-15T09:26:19;98687.34;;;11.80;85.61
28588;BME280;15787;49.662;10.162;2022-11-15T09:29:06;98700.06;;;11.43;86.13
28588;BME280;15787;49.662;10.162;2022-11-15T09:31:52;98679.31;;;11.70;87.22
28588;BME280;15787;49.662;10.162;2022-11-15T09:34:40;98692.06;;;11.83;86.47
28588;BME280;15787;49.662;10.162;2022-11-15T09:37:27;98684.97;;;12.29;85.33
28588;BME280;15787;49.662;10.162;2022-11-15T09:40:15;98693.50;;;12.13;84.50
28588;BME280;15787;49.662;10.162;2022-11-15T09:43:23;98693.41;;;12.85;82.93
28588;BME280;15787;49.662;10.162;2022-11-15T09:46:17;98681.31;;;13.32;80.37
28588;BME280;15787;49.662;10.162;2022-11-15T09:49:04;98680.38;;;13.65;78.85
28588;BME280;15787;49.662;10.162;2022-11-15T09:51:54;98684.28;;;14.08;77.17
28588;BME280;15787;49.662;10.162;2022-11-15T09:54:27;98675.56;;;14.06;75.96
28588;BME280;15787;49.662;10.162;2022-11-15T09:57:20;98679.19;;;14.24;75.79
28588;BME280;15787;49.662;10.162;2022-11-15T09:59:56;98678.50;;;14.69;74.79
28588;BME280;15787;49.662;10.162;2022-11-15T10:02:57;98672.56;;;14.94;72.66
28588;BME280;15787;49.662;10.162;2022-11-15T10:05:26;98666.16;;;14.94;72.61
28588;BME280;15787;49.662;10.162;2022-11-15T10:08:02;98665.06;;;14.91;72.66
28588;BME280;15787;49.662;10.162;2022-11-15T10:10:35;98654.97;;;15.45;74.45
28588;BME280;15787;49.662;10.162;2022-11-15T10:13:04;98653.16;;;15.05;73.49
28588;BME280;15787;49.662;10.162;2022-11-15T10:15:32;98651.59;;;15.23;73.18
28588;BME280;15787;49.662;10.162;2022-11-15T10:18:12;98647.06;;;15.16;72.62
28588;BME280;15787;49.662;10.162;2022-11-15T10:20:44;98639.25;;;15.20;71.20
28588;BME280;15787;49.662;10.162;2022-11-15T10:23:17;98634.53;;;15.26;72.56
28588;BME280;15787;49.662;10.162;2022-11-15T10:25:46;98620.59;;;15.41;71.98
28588;BME280;15787;49.662;10.162;2022-11-15T10:28:16;98617.94;;;15.37;71.38
28588;BME280;15787;49.662;10.162;2022-11-15T10:30:46;98615.78;;;15.32;73.51
28588;BME280;15787;49.662;10.162;2022-11-15T10:33:22;98618.53;;;15.92;72.21
28588;BME280;15787;49.662;10.162;2022-11-15T10:36:19;98611.50;;;16.35;71.37
28588;BME280;15787;49.662;10.162;2022-11-15T10:38:57;98602.63;;;16.51;71.17
28588;BME280;15787;49.662;10.162;2022-11-15T10:41:36;98600.53;;;16.61;69.33
28588;BME280;15787;49.662;10.162;2022-11-15T10:44:25;98604.28;;;16.19;69.13
28588;BME280;15787;49.662;10.162;2022-11-15T10:47:21;98597.91;;;16.33;70.42
28588;BME280;15787;49.662;10.162;2022-11-15T10:49:58;98596.59;;;16.20;69.18
28588;BME280;15787;49.662;10.162;2022-11-15T10:52:28;98585.75;;;16.27;69.58
28588;BME280;15787;49.662;10.162;2022-11-15T10:55:02;98591.31;;;16.36;71.10
28588;BME280;15787;49.662;10.162;2022-11-15T10:57:33;98589.97;;;16.32;70.28
28588;BME280;15787;49.662;10.162;2022-11-15T11:00:05;98575.66;;;16.59;69.89
28588;BME280;15787;49.662;10.162;2022-11-15T11:02:35;98576.81;;;16.53;70.22
28588;BME280;15787;49.662;10.162;2022-11-15T11:05:06;98576.09;;;16.81;71.38
28588;BME280;15787;49.662;10.162;2022-11-15T11:07:35;98564.50;;;16.94;67.98
28588;BME280;15787;49.662;10.162;2022-11-15T11:10:17;98566.75;;;16.75;70.87
28588;BME280;15787;49.662;10.162;2022-11-15T11:13:15;98568.91;;;16.95;68.87
28588;BME280;15787;49.662;10.162;2022-11-15T11:15:54;98558.38;;;17.25;67.78
28588;BME280;15787;49.662;10.162;2022-11-15T11:18:26;98564.78;;;17.54;68.42
28588;BME280;15787;49.662;10.162;2022-11-15T11:20:59;98556.34;;;17.75;67.79
28588;BME280;15787;49.662;10.162;2022-11-15T11:23:44;98558.19;;;16.70;69.59
28588;BME280;15787;49.662;10.162;2022-11-15T11:26:32;98569.81;;;16.24;71.25
28588;BME280;15787;49.662;10.162;2022-11-15T11:29:17;98558.66;;;16.68;72.75
28588;BME280;15787;49.662;10.162;2022-11-15T11:31:54;98552.41;;;16.50;72.45
28588;BME280;15787;49.662;10.162;2022-11-15T11:34:36;98546.41;;;16.33;73.53
28588;BME280;15787;49.662;10.162;2022-11-15T11:37:13;98550.22;;;16.68;74.99
28588;BME280;15787;49.662;10.162;2022-11-15T11:39:52;98555.88;;;16.06;74.32
28588;BME280;15787;49.662;10.162;2022-11-15T11:42:32;98550.44;;;16.41;74.23
28588;BME280;15787;49.662;10.162;2022-11-15T11:45:05;98543.50;;;16.66;74.38
28588;BME280;15787;49.662;10.162;2022-11-15T11:47:46;98546.56;;;16.15;75.14
28588;BME280;15787;49.662;10.162;2022-11-15T11:50:17;98549.13;;;16.27;74.95
28588;BME280;15787;49.662;10.162;2022-11-15T11:52:55;98543.75;;;15.67;75.81
28588;BME280;15787;49.662;10.162;2022-11-15T11:55:32;98542.13;;;15.99;75.86
28588;BME280;15787;49.662;10.162;2022-11-15T11:58:11;98541.66;;;15.53;76.92
28588;BME280;15787;49.662;10.162;2022-11-15T12:00:43;98543.63;;;15.20;75.47
28588;BME280;15787;49.662;10.162;2022-11-15T12:03:20;98535.72;;;15.09;76.24
28588;BME280;15787;49.662;10.162;2022-11-15T12:05:54;98541.19;;;15.46;75.83
28588;BME280;15787;49.662;10.162;2022-11-15T12:08:35;98537.19;;;15.70;75.69
28588;BME280;15787;49.662;10.162;2022-11-15T12:11:11;98530.28;;;15.71;76.11
28588;BME280;15787;49.662;10.162;2022-11-15T12:13:43;98530.41;;;15.77;74.63
28588;BME280;15787;49.662;10.162;2022-11-15T12:16:15;98539.56;;;15.87;74.67
28588;BME280;15787;49.662;10.162;2022-11-15T12:18:49;98539.06;;;15.64;74.89
28588;BME280;15787;49.662;10.162;2022-11-15T12:21:22;98523.41;;;15.96;75.58
28588;BME280;15787;49.662;10.162;2022-11-15T12:23:59;98522.78;;;15.92;74.94
28588;BME280;15787;49.662;10.162;2022-11-15T12:26:34;98520.75;;;15.69;74.52
28588;BME280;15787;49.662;10.162;2022-11-15T12:29:11;98510.75;;;16.30;73.90
28588;BME280;15787;49.662;10.162;2022-11-15T12:31:44;98515.25;;;15.74;74.70
28588;BME280;15787;49.662;10.162;2022-11-15T12:34:34;98502.91;;;15.72;75.74
28588;BME280;15787;49.662;10.162;2022-11-15T12:40:26;98499.13;;;15.75;74.73
28588;BME280;15787;49.662;10.162;2022-11-15T12:43:01;98493.56;;;15.90;74.95
28588;BME280;15787;49.662;10.162;2022-11-15T12:45:32;98492.75;;;15.51;75.36
28588;BME280;15787;49.662;10.162;2022-11-15T12:51:02;98463.41;;;16.05;76.90
28588;BME280;15787;49.662;10.162;2022-11-15T12:53:31;98458.28;;;16.18;76.46
28588;BME280;15787;49.662;10.162;2022-11-15T12:56:20;98450.63;;;16.18;76.31
28588;BME280;15787;49.662;10.162;2022-11-15T12:58:54;98439.56;;;16.44;75.85
28588;BME280;15787;49.662;10.162;2022-11-15T13:01:57;98448.06;;;16.06;73.49
28588;BME280;15787;49.662;10.162;2022-11-15T13:04:28;98443.69;;;16.05;73.87
28588;BME280;15787;49.662;10.162;2022-11-15T13:07:01;98440.81;;;16.43;73.67
28588;BME280;15787;49.662;10.162;2022-11-15T13:09:53;98436.94;;;16.40;73.48
28588;BME280;15787;49.662;10.162;2022-11-15T13:12:56;98445.13;;;16.82;72.36
28588;BME280;15787;49.662;10.162;2022-11-15T13:15:40;98440.31;;;16.30;73.72
28588;BME280;15787;49.662;10.162;2022-11-15T13:18:39;98435.34;;;15.96;74.76
28588;BME280;15787;49.662;10.162;2022-11-15T13:21:21;98429.44;;;16.08;74.45
28588;BME280;15787;49.662;10.162;2022-11-15T13:24:12;98425.59;;;15.97;74.17
28588;BME280;15787;49.662;10.162;2022-11-15T13:26:41;98419.13;;;15.67;74.66
28588;BME280;15787;49.662;10.162;2022-11-15T13:29:16;98414.97;;;16.30;75.00
28588;BME280;15787;49.662;10.162;2022-11-15T13:31:45;98418.00;;;16.12;73.56
28588;BME280;15787;49.662;10.162;2022-11-15T13:34:22;98414.50;;;16.31;74.64
28588;BME280;15787;49.662;10.162;2022-11-15T13:37:27;98420.06;;;15.88;73.78
28588;BME280;15787;49.662;10.162;2022-11-15T13:40:10;98413.59;;;15.96;75.06
28588;BME280;15787;49.662;10.162;2022-11-15T13:42:44;98404.31;;;16.19;76.02
28588;BME280;15787;49.662;10.162;2022-11-15T13:45:14;98401.50;;;16.19;76.20
28588;BME280;15787;49.662;10.162;2022-11-15T13:47:42;98409.34;;;15.77;75.74
28588;BME280;15787;49.662;10.162;2022-11-15T13:50:12;98402.63;;;16.13;76.40
28588;BME280;15787;49.662;10.162;2022-11-15T13:52:42;98397.88;;;16.33;77.51
28588;BME280;15787;49.662;10.162;2022-11-15T13:55:13;98395.34;;;16.35;77.90
28588;BME280;15787;49.662;10.162;2022-11-15T13:57:45;98388.09;;;16.14;79.09
28588;BME280;15787;49.662;10.162;2022-11-15T14:00:31;98390.00;;;16.23;78.63
28588;BME280;15787;49.662;10.162;2022-11-15T14:03:07;98392.31;;;16.10;77.76
28588;BME280;15787;49.662;10.162;2022-11-15T14:05:37;98388.09;;;16.14;74.77
28588;BME280;15787;49.662;10.162;2022-11-15T14:08:21;98388.81;;;15.38;71.11
28588;BME280;15787;49.662;10.162;2022-11-15T14:11:05;98388.94;;;15.53;71.41
28588;BME280;15787;49.662;10.162;2022-11-15T14:13:33;98383.47;;;15.49;71.46
28588;BME280;15787;49.662;10.162;2022-11-15T14:16:16;98383.50;;;15.16;72.94
28588;BME280;15787;49.662;10.162;2022-11-15T14:18:47;98383.63;;;15.22;74.98
28588;BME280;15787;49.662;10.162;2022-11-15T14:21:18;98371.00;;;15.65;76.25
28588;BME280;15787;49.662;10.162;2022-11-15T14:23:46;98369.25;;;15.67;76.90
28588;BME280;15787;49.662;10.162;2022-11-15T14:26:29;98363.91;;;15.55;78.41
28588;BME280;15787;49.662;10.162;2022-11-15T14:29:21;98363.19;;;15.84;78.15
28588;BME280;15787;49.662;10.162;2022-11-15T14:31:49;98354.78;;;15.60;78.78
28588;BME280;15787;49.662;10.162;2022-11-15T14:34:17;98356.38;;;15.90;77.79
28588;BME280;15787;49.662;10.162;2022-11-15T14:36:46;98350.19;;;16.01;77.79
28588;BME280;15787;49.662;10.162;2022-11-15T14:39:14;98348.91;;;15.87;76.88